YPPD/PHE METAR and TAF weather

Enter ICAO airport designator
Station Type Date Time Source
YPPD METAR 2018/12/15 02:30 UTC NOAA

YPPD 150230Z AUTO 30018KT 9999 // NCD 33/22 Q1003


Station Type Date Time Source
YPPD Decoded METAR 2018/12/15 02:30 UTC NOAA

Port Hedland Pardoo, Australia (YPPD) 20-06S 119-34E 10M
Dec 14, 2018 - 09:30 PM EST / 2018.12.15 0230 UTC
Wind: from the WNW (300 degrees) at 21 MPH (18 KT):0
Visibility: greater than 7 mile(s):0
Temperature: 91 F (33 C)
Heat index: 97.5 F (36.4 C):1
Dew Point: 71 F (22 C)
Relative Humidity: 52%
Pressure (altimeter): 29.62 in. Hg (1003 hPa)
ob: YPPD 150230Z AUTO 30018KT 9999 // NCD 33/22 Q1003
cycle: 2

Station Type Date Time Source
YPPD TAF 2018/12/15 02:21 UTC NOAA

TAF TAF
AMD YPPD 150218Z 1502/1524 30020KT CAVOK
FM151400 27014KT CAVOK


Example: see airport list